Time;durP1;ratioP1;P1;durP2;ratioP2;P2;SDS_P1;SDS_P2;PMS_P1;PMS_P2;Temp;Humidity;BMP_temperature;BMP_pressure;BME280_temperature;BME280_humidity;BME280_pressure;Samples;Min_cycle;Max_cycle;Signal;HPM_P1;HPM_P2
2022/11/15 00:01:22;;;;;;;75.22;20.80;;;;;;;7.84;59.60;100224.78;4373832;32;20202;-90
2022/11/15 00:03:50;;;;;;;112.18;22.23;;;;;;;8.08;59.63;100220.16;4362559;32;20117;-90
2022/11/15 00:06:16;;;;;;;109.57;22.95;;;;;;;8.27;59.64;100221.56;4375009;32;20691;-90
2022/11/15 00:08:41;;;;;;;122.50;24.25;;;;;;;8.05;59.62;100222.78;4374341;32;20155;-90
2022/11/15 00:11:08;;;;;;;88.28;21.80;;;;;;;8.00;59.62;100222.84;4387081;32;20195;-90
2022/11/15 00:13:33;;;;;;;90.32;23.15;;;;;;;7.90;59.61;100222.12;4377139;32;20095;-89
2022/11/15 00:15:59;;;;;;;57.53;19.42;;;;;;;7.93;59.62;100224.66;4376228;32;21598;-91
2022/11/15 00:18:25;;;;;;;113.62;22.55;;;;;;;8.19;59.63;100223.44;4375645;32;20145;-90
2022/11/15 00:20:50;;;;;;;71.22;20.70;;;;;;;8.06;59.62;100222.78;4364677;32;20111;-90
2022/11/15 00:23:16;;;;;;;107.18;23.73;;;;;;;8.06;59.62;100222.78;4374766;32;20095;-90
2022/11/15 00:25:41;;;;;;;95.97;23.40;;;;;;;8.30;59.64;100222.41;4389414;32;20102;-90
2022/11/15 00:28:07;;;;;;;85.75;22.52;;;;;;;7.97;59.61;100221.13;4361217;32;21935;-90
2022/11/15 00:30:32;;;;;;;62.33;19.15;;;;;;;7.91;59.61;100217.78;4361938;32;20161;-91
2022/11/15 00:33:04;;;;;;;101.70;24.00;;;;;;;7.97;59.62;100215.97;4373965;32;20134;-90
2022/11/15 00:35:32;;;;;;;50.67;19.27;;;;;;;7.91;59.61;100210.88;4362049;32;20158;-90
2022/11/15 00:37:58;;;;;;;62.95;21.23;;;;;;;7.87;59.62;100210.94;4364254;32;20106;-90
2022/11/15 00:40:24;;;;;;;107.00;21.80;;;;;;;7.95;59.62;100215.12;4376808;32;20137;-90
2022/11/15 00:42:49;;;;;;;53.97;19.17;;;;;;;8.00;59.63;100202.94;4364231;32;20146;-90
2022/11/15 00:45:15;;;;;;;49.85;20.45;;;;;;;7.96;59.62;100213.37;4374585;32;20099;-89
2022/11/15 00:47:40;;;;;;;68.85;20.48;;;;;;;7.89;59.62;100216.94;4376717;32;20160;-90
2022/11/15 00:50:06;;;;;;;55.72;19.20;;;;;;;7.85;59.62;100208.38;4366543;32;20091;-90
2022/11/15 00:52:31;;;;;;;67.07;20.05;;;;;;;8.02;59.62;100201.19;4364412;32;20110;-90
2022/11/15 00:54:57;;;;;;;69.90;19.90;;;;;;;8.04;59.62;100201.16;4364418;32;20146;-89
2022/11/15 00:57:22;;;;;;;45.33;20.02;;;;;;;8.01;59.63;100201.22;4361183;32;32621;-89
2022/11/15 00:59:47;;;;;;;52.62;18.87;;;;;;;8.01;59.63;100202.06;4364250;32;20186;-89
2022/11/15 01:02:13;;;;;;;51.67;18.40;;;;;;;7.90;59.61;100195.34;4366561;32;20099;-90
2022/11/15 01:04:39;;;;;;;41.67;19.52;;;;;;;7.91;59.61;100191.88;4375335;32;20095;-89
2022/11/15 01:07:04;;;;;;;57.97;20.45;;;;;;;8.08;59.63;100186.44;4376655;32;20161;-89
2022/11/15 01:09:29;;;;;;;48.90;19.85;;;;;;;7.99;59.62;100188.28;4352297;32;20625;-90
2022/11/15 01:11:55;;;;;;;43.33;20.25;;;;;;;8.04;59.62;100182.16;4377370;32;20118;-90
2022/11/15 01:14:20;;;;;;;49.38;19.35;;;;;;;8.24;59.64;100177.53;4378969;32;21070;-90
2022/11/15 01:16:45;;;;;;;59.75;20.40;;;;;;;8.09;59.63;100176.06;4367080;32;20173;-89
2022/11/15 01:19:11;;;;;;;50.00;20.70;;;;;;;7.96;59.62;100179.69;4350807;32;36083;-90
2022/11/15 01:21:36;;;;;;;69.20;20.60;;;;;;;7.80;59.61;100173.84;4376500;32;20170;-90
2022/11/15 01:24:05;;;;;;;52.13;20.10;;;;;;;7.84;59.62;100169.50;4376340;32;20126;-93
2022/11/15 01:26:30;;;;;;;48.28;20.48;;;;;;;7.81;59.61;100165.25;4386524;32;20106;-92
2022/11/15 01:28:56;;;;;;;70.97;21.40;;;;;;;7.98;59.61;100165.81;4352229;32;20128;-93
2022/11/15 01:31:21;;;;;;;56.30;20.60;;;;;;;7.61;59.60;100169.81;4376443;32;29586;-92
2022/11/15 01:33:47;;;;;;;48.80;19.98;;;;;;;7.63;59.61;100171.53;4352695;32;20098;-93
2022/11/15 01:36:14;;;;;;;62.25;19.52;;;;;;;7.79;59.61;100166.09;4377484;32;20110;-92
2022/11/15 01:38:40;;;;;;;46.08;18.73;;;;;;;7.85;59.62;100166.91;4376534;32;20107;-93
2022/11/15 01:41:05;;;;;;;78.12;22.10;;;;;;;7.87;59.62;100162.53;4375854;32;20109;-93
2022/11/15 01:43:33;;;;;;;61.42;21.98;;;;;;;7.80;59.61;100167.81;4352257;32;20135;-92
2022/11/15 01:46:21;;;;;;;64.18;21.58;;;;;;;7.99;59.63;100156.31;4374764;32;20114;-92
2022/11/15 01:48:47;;;;;;;44.63;20.62;;;;;;;7.80;59.61;100160.03;4373532;32;20098;-92
2022/11/15 01:51:12;;;;;;;55.45;20.58;;;;;;;7.84;59.60;100149.63;4375553;32;20120;-92
2022/11/15 01:53:38;;;;;;;71.55;21.23;;;;;;;7.98;59.62;100152.00;4351735;32;20156;-92
2022/11/15 01:56:06;;;;;;;50.28;20.98;;;;;;;7.95;59.62;100152.06;4373960;32;20146;-92
2022/11/15 01:58:31;;;;;;;46.35;19.90;;;;;;;7.76;59.60;100160.97;4375956;32;20059;-92
2022/11/15 02:00:57;;;;;;;44.65;21.08;;;;;;;7.78;59.61;100148.84;4363809;32;20153;-93
2022/11/15 02:03:22;;;;;;;46.97;20.65;;;;;;;7.86;59.61;100154.78;4351663;32;27335;-94
2022/11/15 02:05:48;;;;;;;43.13;20.92;;;;;;;7.92;59.62;100147.78;4377556;32;20192;-93
2022/11/15 02:08:19;;;;;;;70.50;20.98;;;;;;;7.87;59.61;100143.56;4351901;32;29415;-92
2022/11/15 02:10:48;;;;;;;44.17;20.70;;;;;;;8.19;59.63;100130.06;4374263;32;20138;-92
2022/11/15 02:13:16;;;;;;;49.00;20.67;;;;;;;8.35;59.64;100121.22;4362314;32;20126;-92
2022/11/15 02:15:59;;;;;;;45.42;20.30;;;;;;;8.11;59.63;100129.34;4351947;32;20467;-92
2022/11/15 02:18:52;;;;;;;53.63;20.17;;;;;;;8.05;59.62;100121.69;4377557;32;20118;-92
2022/11/15 02:21:22;;;;;;;43.83;20.45;;;;;;;7.96;59.62;100120.06;4389028;32;20117;-92
2022/11/15 02:24:25;;;;;;;42.75;20.37;;;;;;;8.07;59.62;100125.09;4376780;32;20497;-93
2022/11/15 02:27:58;;;;;;;;;;;;;;;;;;;;;
2022/11/15 02:30:25;;;;;;;35.65;17.75;;;;;;;8.05;59.62;100124.28;4363105;32;35529;-92
2022/11/15 02:32:54;;;;;;;50.25;21.73;;;;;;;7.88;59.62;100121.94;4373538;32;20083;-91
2022/11/15 02:35:38;;;;;;;51.17;21.05;;;;;;;7.76;59.60;100111.72;4374245;32;20091;-92
2022/11/15 02:38:23;;;;;;;42.20;20.25;;;;;;;7.84;59.62;100115.94;4388661;32;20102;-92
2022/11/15 02:41:00;;;;;;;39.35;20.40;;;;;;;7.77;59.61;100119.47;4375777;32;20129;-92
2022/11/15 02:46:15;;;;;;;38.25;19.60;;;;;;;7.78;59.61;100110.84;4373308;32;20149;-92
2022/11/15 02:48:40;;;;;;;39.17;19.67;;;;;;;7.79;59.61;100109.94;4386022;32;20489;-91
2022/11/15 02:51:06;;;;;;;35.95;19.12;;;;;;;7.88;59.62;100120.19;4362998;32;20134;-92
2022/11/15 02:53:32;;;;;;;36.78;19.08;;;;;;;8.02;59.63;100112.19;4375938;32;20484;-92
2022/11/15 02:55:58;;;;;;;41.42;19.67;;;;;;;7.83;59.61;100115.97;4376318;32;20082;-92
2022/11/15 02:58:29;;;;;;;40.08;18.33;;;;;;;7.83;59.60;100111.66;4371406;32;20360;-92
2022/11/15 03:00:57;;;;;;;40.08;19.90;;;;;;;7.85;59.61;100111.63;4391709;32;20095;-92
2022/11/15 03:03:39;;;;;;;41.67;20.80;;;;;;;7.82;59.61;100104.75;4388542;32;20094;-93
2022/11/15 03:06:30;;;;;;;37.90;19.15;;;;;;;7.83;59.61;100110.78;4372571;32;20113;-92
2022/11/15 03:09:18;;;;;;;36.58;18.40;;;;;;;7.84;59.62;100112.50;4377957;32;20181;-92
2022/11/15 03:11:48;;;;;;;39.45;18.80;;;;;;;7.91;59.61;100108.94;4364724;32;20106;-92
2022/11/15 03:14:31;;;;;;;36.63;18.17;;;;;;;7.95;59.62;100108.84;4357435;32;20091;-92
2022/11/15 03:17:03;;;;;;;37.50;20.05;;;;;;;8.04;59.62;100112.16;4377811;32;20098;-92
2022/11/15 03:19:41;;;;;;;37.38;19.55;;;;;;;7.77;59.61;100109.13;4378117;32;20138;-92
2022/11/15 03:22:07;;;;;;;35.85;18.73;;;;;;;7.75;59.61;100105.69;4378045;32;20173;-91
2022/11/15 03:24:38;;;;;;;39.92;19.27;;;;;;;7.90;59.61;100095.09;4365335;32;20169;-92
2022/11/15 03:27:04;;;;;;;37.25;18.10;;;;;;;7.95;59.62;100093.28;4374785;32;20097;-92
2022/11/15 03:29:32;;;;;;;43.38;20.42;;;;;;;8.22;59.63;100085.94;4378722;32;20153;-91
2022/11/15 03:32:03;;;;;;;40.58;20.10;;;;;;;8.17;59.63;100085.16;4375129;32;20107;-91
2022/11/15 03:34:39;;;;;;;42.15;20.15;;;;;;;8.23;59.64;100080.72;4388022;32;20145;-91
2022/11/15 03:37:04;;;;;;;40.88;21.15;;;;;;;8.15;59.63;100084.34;4389986;32;20108;-91
2022/11/15 03:39:30;;;;;;;39.15;19.40;;;;;;;8.16;59.63;100080.87;4364740;32;21846;-91
2022/11/15 03:42:07;;;;;;;37.13;18.85;;;;;;;8.15;59.63;100077.41;4375430;32;20932;-93
2022/11/15 03:44:35;;;;;;;38.20;18.02;;;;;;;8.17;59.63;100070.47;4389992;32;20078;-93
2022/11/15 03:47:02;;;;;;;37.75;18.25;;;;;;;8.04;59.62;100071.53;4390860;32;20082;-92
2022/11/15 03:49:30;;;;;;;33.58;18.73;;;;;;;8.25;59.64;100059.94;4388553;32;20095;-92
2022/11/15 03:51:58;;;;;;;35.60;17.65;;;;;;;8.50;59.64;100057.81;4356862;32;20086;-93
2022/11/15 03:54:24;;;;;;;39.35;17.75;;;;;;;8.52;59.64;100050.87;4378931;32;20140;-93
2022/11/15 03:56:49;;;;;;;32.13;16.23;;;;;;;8.31;59.64;100062.47;4365403;32;20389;-92
2022/11/15 03:59:14;;;;;;;33.63;16.80;;;;;;;8.34;59.64;100070.22;4352459;32;28541;-93
2022/11/15 04:01:40;;;;;;;37.17;19.05;;;;;;;8.24;59.64;100066.88;4376547;32;20705;-93
2022/11/15 04:04:05;;;;;;;39.55;19.20;;;;;;;8.42;59.64;100042.38;4365303;32;20109;-93
2022/11/15 04:06:31;;;;;;;33.88;17.75;;;;;;;8.20;59.63;100043.63;4361130;32;20117;-93
2022/11/15 04:08:56;;;;;;;37.47;18.45;;;;;;;8.24;59.64;100043.53;4362527;32;20211;-93
2022/11/15 04:11:21;;;;;;;39.60;19.33;;;;;;;8.06;59.62;100038.69;4362074;32;20127;-93
2022/11/15 04:13:47;;;;;;;39.03;19.90;;;;;;;8.14;59.63;100047.19;4376983;32;20169;-93
2022/11/15 04:16:12;;;;;;;39.80;20.30;;;;;;;8.25;59.63;100053.03;4364541;32;22834;-93
2022/11/15 04:18:38;;;;;;;41.10;20.02;;;;;;;8.28;59.63;100054.72;4375349;32;20177;-93
2022/11/15 04:26:31;;;;;;;30.80;16.92;;;;;;;8.15;59.64;100058.41;4378304;32;20222;-92
2022/11/15 04:31:40;;;;;;;35.00;17.30;;;;;;;8.06;59.62;100056.84;4369566;32;20527;-92
2022/11/15 04:34:06;;;;;;;34.33;17.12;;;;;;;8.28;59.63;100046.94;4377863;32;20090;-92
2022/11/15 04:39:16;;;;;;;30.58;16.95;;;;;;;8.72;59.66;100029.69;4374216;32;20118;-93
2022/11/15 04:41:41;;;;;;;31.12;16.40;;;;;;;8.61;59.65;100027.34;4386609;32;25218;-93
2022/11/15 04:44:07;;;;;;;29.50;15.57;;;;;;;8.43;59.64;100025.09;4378917;32;20137;-92
2022/11/15 04:46:32;;;;;;;36.10;17.90;;;;;;;8.54;59.65;100026.59;4350922;32;20581;-93
2022/11/15 04:48:58;;;;;;;30.88;15.60;;;;;;;8.43;59.64;100025.09;4365092;32;27106;-93
2022/11/15 04:51:23;;;;;;;28.62;16.42;;;;;;;8.46;59.65;100028.47;4352629;32;20213;-91
2022/11/15 04:53:48;;;;;;;31.90;16.37;;;;;;;8.22;59.62;100026.28;4374983;32;20160;-92
2022/11/15 04:56:14;;;;;;;34.00;15.90;;;;;;;8.07;59.63;100030.03;4389757;32;20146;-92
2022/11/15 04:58:39;;;;;;;30.65;16.10;;;;;;;8.19;59.63;100034.13;4352467;32;20409;-93
2022/11/15 05:01:23;;;;;;;30.20;15.52;;;;;;;8.09;59.63;100032.59;4375379;32;20487;-94
2022/11/15 05:06:34;;;;;;;32.60;15.60;;;;;;;8.09;59.63;100033.47;4373511;32;20105;-94
2022/11/15 05:08:59;;;;;;;29.58;14.25;;;;;;;8.16;59.63;100032.47;4390810;32;20132;-95
2022/11/15 05:11:24;;;;;;;24.27;14.55;;;;;;;8.37;59.64;100035.59;4377305;32;20110;-94
2022/11/15 05:14:19;;;;;;;26.98;14.27;;;;;;;8.15;59.63;100035.94;4389573;32;20121;-94
2022/11/15 05:16:44;;;;;;;26.77;14.82;;;;;;;8.24;59.63;100034.91;4367545;32;20164;-94
2022/11/15 05:19:10;;;;;;;31.58;15.10;;;;;;;8.42;59.64;100031.16;4377141;32;20479;-94
2022/11/15 05:21:35;;;;;;;27.25;14.38;;;;;;;8.59;59.66;100022.19;4363484;32;20152;-91
2022/11/15 05:24:01;;;;;;;29.27;15.35;;;;;;;8.64;59.66;100022.09;4361551;32;20107;-93
2022/11/15 05:26:26;;;;;;;28.42;14.40;;;;;;;8.61;59.65;100011.75;4374626;32;20102;-92
2022/11/15 05:28:54;;;;;;;24.25;14.07;;;;;;;8.50;59.65;100017.16;4379460;32;20118;-93
2022/11/15 05:31:19;;;;;;;29.48;15.27;;;;;;;8.81;59.66;100013.97;4353414;32;20102;-94
2022/11/15 05:33:44;;;;;;;29.12;16.02;;;;;;;8.84;59.67;100006.09;4378870;32;20447;-94
2022/11/15 05:37:23;;;;;;;28.87;14.93;;;;;;;8.88;59.66;100010.34;4365534;32;20168;-92
2022/11/15 05:39:49;;;;;;;28.48;14.63;;;;;;;8.84;59.67;100000.91;4304599;33;20120;-93
2022/11/15 05:42:15;;;;;;;27.45;14.70;;;;;;;8.43;59.64;100000.00;4359461;32;20119;-94
2022/11/15 05:44:43;;;;;;;28.10;15.48;;;;;;;8.47;59.65;100000.78;4362479;32;20484;-91
2022/11/15 05:47:09;;;;;;;33.55;17.05;;;;;;;8.49;59.65;100006.81;4361932;32;20063;-92
2022/11/15 05:49:35;;;;;;;35.72;16.95;;;;;;;8.50;59.65;100006.78;4374767;32;20134;-92
2022/11/15 05:52:00;;;;;;;28.00;15.93;;;;;;;8.49;59.65;100012.00;4374117;32;20103;-92
2022/11/15 05:54:26;;;;;;;32.40;16.75;;;;;;;8.58;59.65;100014.44;4373865;32;24214;-92
2022/11/15 05:56:51;;;;;;;29.12;15.30;;;;;;;8.56;59.65;100013.59;4373637;32;20423;-91
2022/11/15 05:59:17;;;;;;;31.20;14.98;;;;;;;8.68;59.66;100017.69;4375098;32;20150;-92
2022/11/15 06:01:42;;;;;;;27.37;14.93;;;;;;;8.76;59.67;100015.81;4364239;32;20167;-91
2022/11/15 06:04:07;;;;;;;27.42;15.50;;;;;;;8.87;59.67;99996.50;4373683;32;20138;-92
2022/11/15 06:06:33;;;;;;;28.90;14.73;;;;;;;8.84;59.67;99991.38;4373644;32;20119;-93
2022/11/15 06:08:58;;;;;;;28.80;15.27;;;;;;;8.79;59.66;99998.41;4364081;32;20160;-92
2022/11/15 06:11:24;;;;;;;27.25;13.75;;;;;;;8.67;59.66;100009.03;4376018;32;20114;-92
2022/11/15 06:13:49;;;;;;;28.27;14.68;;;;;;;8.79;59.66;100008.81;4342583;32;24575;-92
2022/11/15 06:16:14;;;;;;;30.12;14.57;;;;;;;8.74;59.67;100005.44;4373647;32;21071;-92
2022/11/15 06:18:40;;;;;;;32.45;14.45;;;;;;;8.71;59.66;100004.62;4375884;32;27601;-92
2022/11/15 06:21:06;;;;;;;26.52;14.35;;;;;;;8.78;59.66;100006.25;4374043;32;20158;-92
2022/11/15 06:23:32;;;;;;;27.08;14.48;;;;;;;8.79;59.66;100008.81;4384604;32;22417;-93
2022/11/15 06:25:58;;;;;;;29.85;14.82;;;;;;;8.80;59.66;100007.91;4380626;32;20102;-92
2022/11/15 06:28:23;;;;;;;33.00;15.05;;;;;;;8.99;59.67;100010.09;4378431;32;20106;-92
2022/11/15 06:30:48;;;;;;;29.30;14.55;;;;;;;9.04;59.67;100008.28;4364966;32;21723;-92
2022/11/15 06:33:14;;;;;;;30.55;15.15;;;;;;;9.20;59.69;100013.09;4362962;32;20150;-92
2022/11/15 06:35:39;;;;;;;32.67;15.95;;;;;;;9.19;59.68;100013.13;4375447;32;20404;-92
2022/11/15 06:38:06;;;;;;;34.58;16.90;;;;;;;9.25;59.68;100010.41;4371962;32;20154;-91
2022/11/15 06:40:36;;;;;;;30.70;16.50;;;;;;;9.23;59.69;100015.66;4354203;32;20114;-92
2022/11/15 06:43:01;;;;;;;33.38;17.00;;;;;;;9.32;59.69;100016.31;4378097;32;20121;-91
2022/11/15 06:45:27;;;;;;;31.27;18.25;;;;;;;9.30;59.69;100016.34;4352806;32;20102;-92
2022/11/15 06:47:52;;;;;;;39.13;17.50;;;;;;;9.40;59.69;100007.44;4363222;32;20111;-92
2022/11/15 06:50:18;;;;;;;30.88;17.05;;;;;;;9.34;59.70;100005.00;4363605;32;20174;-92
2022/11/15 06:52:43;;;;;;;32.17;15.95;;;;;;;9.39;59.70;100010.94;4375326;32;20432;-91
2022/11/15 06:55:08;;;;;;;35.35;18.20;;;;;;;9.44;59.70;100009.09;4365220;32;20155;-91
2022/11/15 06:57:34;;;;;;;35.45;20.05;;;;;;;9.72;59.71;100011.06;4377930;32;20138;-92
2022/11/15 06:59:59;;;;;;;39.92;18.55;;;;;;;9.76;59.71;100012.69;4365027;32;20154;-92
2022/11/15 07:02:25;;;;;;;41.28;19.33;;;;;;;9.81;59.72;99997.81;4353036;32;20111;-93
2022/11/15 07:04:50;;;;;;;32.97;17.67;;;;;;;9.84;59.72;99993.37;4364723;32;20142;-92
2022/11/15 07:07:15;;;;;;;38.97;18.80;;;;;;;9.74;59.72;100002.31;4352683;32;20151;-92
2022/11/15 07:09:41;;;;;;;37.90;19.95;;;;;;;9.84;59.72;99993.37;4365343;32;20194;-93
2022/11/15 07:12:07;;;;;;;38.15;19.62;;;;;;;9.73;59.72;99999.75;4390338;32;20165;-92
2022/11/15 07:14:32;;;;;;;37.47;19.50;;;;;;;9.85;59.72;99987.28;4375223;32;20948;-92
2022/11/15 07:16:58;;;;;;;36.80;18.77;;;;;;;9.90;59.72;99988.91;4352357;32;20126;-92
2022/11/15 07:19:23;;;;;;;37.28;20.10;;;;;;;10.02;59.73;99978.22;4377330;32;20410;-92
2022/11/15 07:21:48;;;;;;;34.95;17.87;;;;;;;10.18;59.75;99973.47;4374825;32;20448;-92
2022/11/15 07:24:14;;;;;;;38.38;19.40;;;;;;;10.09;59.73;99979.75;4375161;32;20396;-92
2022/11/15 07:26:39;;;;;;;38.08;20.40;;;;;;;10.04;59.73;99979.03;4363758;32;27109;-93
2022/11/15 07:29:05;;;;;;;35.42;18.80;;;;;;;10.04;59.73;99984.22;4377462;32;20575;-92
2022/11/15 07:31:31;;;;;;;36.40;19.73;;;;;;;10.00;59.73;99980.88;4352416;32;20107;-93
2022/11/15 07:33:56;;;;;;;42.08;19.00;;;;;;;10.35;59.75;99981.69;4362536;32;20122;-92
2022/11/15 07:36:21;;;;;;;33.95;17.80;;;;;;;10.56;59.76;99973.28;4368499;32;20165;-92
2022/11/15 07:38:47;;;;;;;31.83;18.42;;;;;;;10.42;59.75;99975.44;4375839;32;20395;-92
2022/11/15 07:41:12;;;;;;;36.90;18.90;;;;;;;10.40;59.75;99980.66;4364169;32;22889;-92
2022/11/15 07:43:38;;;;;;;40.20;20.27;;;;;;;10.32;59.75;99981.78;4365032;32;20134;-92
2022/11/15 07:46:08;;;;;;;36.72;19.08;;;;;;;10.58;59.76;99991.47;4362043;32;20103;-92
2022/11/15 07:48:34;;;;;;;34.47;18.12;;;;;;;10.97;59.78;99984.25;4362987;32;20115;-92
2022/11/15 07:51:00;;;;;;;38.28;19.92;;;;;;;11.00;59.79;99987.63;4374769;32;20126;-92
2022/11/15 07:53:25;;;;;;;33.97;19.27;;;;;;;10.98;59.78;99975.53;4362186;32;20127;-92
2022/11/15 07:55:53;;;;;;;33.25;18.52;;;;;;;11.01;59.79;99978.06;4377302;32;20146;-92
2022/11/15 07:58:18;;;;;;;31.73;18.60;;;;;;;11.10;59.79;99964.75;4365136;32;20118;-92
2022/11/15 08:00:44;;;;;;;37.40;19.73;;;;;;;11.10;59.79;99969.94;4364644;32;20138;-92
2022/11/15 08:03:11;;;;;;;35.88;18.33;;;;;;;11.27;59.80;99972.03;4368551;32;20098;-92
2022/11/15 08:05:37;;;;;;;32.30;16.98;;;;;;;11.19;59.80;99966.22;4388333;32;20075;-93
2022/11/15 08:08:02;;;;;;;30.73;17.65;;;;;;;11.34;59.80;99963.13;4378302;32;20209;-93
2022/11/15 08:10:28;;;;;;;31.95;17.12;;;;;;;11.30;59.79;99969.34;4369251;32;20086;-92
2022/11/15 08:13:00;;;;;;;32.97;17.73;;;;;;;11.43;59.81;99967.22;4364517;32;20140;-92
2022/11/15 08:15:26;;;;;;;33.58;18.02;;;;;;;11.57;59.81;99949.34;4362047;32;20133;-92
2022/11/15 08:17:58;;;;;;;31.33;16.40;;;;;;;11.57;59.81;99938.91;4374883;32;20151;-92
2022/11/15 08:20:24;;;;;;;29.80;15.93;;;;;;;11.48;59.81;99934.88;4374933;32;20517;-93
2022/11/15 08:22:49;;;;;;;30.48;16.08;;;;;;;11.55;59.81;99930.31;4384247;32;20098;-92
2022/11/15 08:25:15;;;;;;;32.85;16.20;;;;;;;11.31;59.80;99931.94;4352321;32;20126;-92
2022/11/15 08:27:40;;;;;;;28.38;17.12;;;;;;;11.46;59.81;99926.25;4376989;32;20106;-93
2022/11/15 08:30:07;;;;;;;32.42;16.12;;;;;;;11.56;59.81;99932.00;4364027;32;21539;-92
2022/11/15 08:32:33;;;;;;;31.30;16.92;;;;;;;11.40;59.81;99934.28;4356179;32;20519;-92
2022/11/15 08:34:58;;;;;;;31.87;17.33;;;;;;;11.31;59.80;99939.78;4362641;32;20575;-92
2022/11/15 08:37:23;;;;;;;33.05;16.23;;;;;;;11.39;59.81;99943.00;4374103;32;20138;-92
2022/11/15 08:39:49;;;;;;;30.37;17.67;;;;;;;11.41;59.81;99937.75;4373767;32;20518;-91
2022/11/15 08:42:16;;;;;;;31.62;16.60;;;;;;;11.30;59.80;99930.25;4362075;32;20123;-92
2022/11/15 08:44:41;;;;;;;31.02;15.85;;;;;;;11.27;59.80;99928.59;4362191;32;20119;-93
2022/11/15 08:47:07;;;;;;;30.58;16.42;;;;;;;11.26;59.80;99916.47;4364444;32;20157;-92
2022/11/15 08:49:32;;;;;;;45.78;25.75;;;;;;;11.12;59.79;99916.06;4351553;32;20154;-92
2022/11/15 08:51:57;;;;;;;40.63;21.05;;;;;;;11.23;59.80;99908.75;4376198;32;23725;-92
2022/11/15 08:54:23;;;;;;;30.50;17.12;;;;;;;11.18;59.79;99910.66;4364405;32;20416;-92
2022/11/15 08:56:48;;;;;;;33.30;16.83;;;;;;;11.14;59.79;99905.59;4374294;32;28056;-93
2022/11/15 08:59:13;;;;;;;29.73;16.50;;;;;;;11.05;59.79;99906.72;4376967;32;20126;-90
2022/11/15 09:01:39;;;;;;;29.15;16.70;;;;;;;10.90;59.78;99905.47;4377233;32;20150;-92
2022/11/15 09:04:04;;;;;;;31.92;17.05;;;;;;;10.94;59.78;99908.81;4351619;32;20126;-92
2022/11/15 09:06:30;;;;;;;34.65;17.87;;;;;;;10.96;59.78;99918.28;4361729;32;20154;-92
2022/11/15 09:08:56;;;;;;;33.10;17.08;;;;;;;11.04;59.79;99921.50;4361687;32;20147;-92
2022/11/15 09:11:23;;;;;;;30.30;17.00;;;;;;;11.15;59.79;99918.56;4363450;32;20142;-92
2022/11/15 09:13:48;;;;;;;29.70;15.57;;;;;;;11.18;59.79;99909.81;4374312;32;20141;-92
2022/11/15 09:16:15;;;;;;;31.45;17.30;;;;;;;11.35;59.80;99905.72;4387086;32;20127;-92
2022/11/15 09:18:40;;;;;;;32.80;16.87;;;;;;;11.28;59.80;99906.84;4374252;32;20099;-92
2022/11/15 09:21:06;;;;;;;32.53;17.23;;;;;;;11.35;59.80;99910.94;4364234;32;20102;-92
2022/11/15 09:23:31;;;;;;;32.63;17.23;;;;;;;11.34;59.80;99908.41;4376627;32;20118;-93
2022/11/15 09:26:01;;;;;;;29.73;16.40;;;;;;;11.34;59.80;99906.62;4365759;32;20170;-92
2022/11/15 09:28:27;;;;;;;31.83;17.80;;;;;;;11.37;59.81;99901.34;4381062;32;20106;-92
2022/11/15 09:30:56;;;;;;;34.65;16.77;;;;;;;11.55;59.82;99899.00;4389406;32;20083;-92
2022/11/15 09:33:21;;;;;;;43.80;23.40;;;;;;;11.49;59.81;99894.87;4350600;32;20914;-92
2022/11/15 09:35:47;;;;;;;34.45;21.12;;;;;;;11.41;59.81;99896.03;4353435;32;20168;-92
2022/11/15 09:38:12;;;;;;;33.55;18.37;;;;;;;11.44;59.80;99891.56;4389166;32;20142;-92
2022/11/15 09:40:38;;;;;;;31.80;17.75;;;;;;;11.54;59.82;99886.87;4373869;32;20126;-92
2022/11/15 09:43:22;;;;;;;33.00;17.65;;;;;;;11.65;59.82;99879.56;4361150;32;26574;-92
2022/11/15 09:45:53;;;;;;;39.05;19.02;;;;;;;11.56;59.82;99885.94;4366275;32;20470;-92
2022/11/15 09:48:29;;;;;;;35.75;18.90;;;;;;;11.55;59.81;99888.59;4374219;32;20102;-92
2022/11/15 09:51:00;;;;;;;34.83;20.23;;;;;;;11.66;59.82;99894.31;4366303;32;20091;-93
2022/11/15 09:53:51;;;;;;;35.63;19.23;;;;;;;11.66;59.82;99889.09;4373326;32;20131;-93
2022/11/15 09:56:20;;;;;;;;;;;;;;;11.82;59.82;99892.03;4380107;32;20452;-93
2022/11/15 09:59:16;;;;;;;33.38;18.87;;;;;;;11.84;59.83;99888.50;4380411;32;19990;-93
2022/11/15 10:02:07;;;;;;;35.38;18.98;;;;;;;11.97;59.83;99879.31;4376899;32;20109;-93
2022/11/15 10:04:32;;;;;;;40.20;18.85;;;;;;;11.80;59.83;99873.84;4387039;32;20177;-93
2022/11/15 10:07:02;;;;;;;41.55;18.62;;;;;;;11.89;59.83;99864.84;4376577;32;20151;-93
2022/11/15 10:09:57;;;;;;;35.10;19.55;;;;;;;11.85;59.83;99869.34;4355326;32;20757;-93
2022/11/15 10:12:22;;;;;;;41.67;21.98;;;;;;;11.66;59.82;99860.41;4376470;32;20154;-93
2022/11/15 10:14:49;;;;;;;38.15;20.95;;;;;;;11.64;59.82;99854.41;4361389;32;20133;-92
2022/11/15 10:17:32;;;;;;;35.97;20.35;;;;;;;11.62;59.82;99851.84;4351525;32;20137;-92
2022/11/15 10:20:16;;;;;;;39.90;24.30;;;;;;;11.82;59.82;99856.37;4388662;32;20117;-93
2022/11/15 10:22:58;;;;;;;39.70;22.50;;;;;;;11.79;59.83;99856.50;4376343;32;20110;-93
2022/11/15 10:25:28;;;;;;;41.10;22.55;;;;;;;11.76;59.83;99853.09;4354871;32;20106;-93
2022/11/15 10:28:22;;;;;;;39.10;21.10;;;;;;;11.73;59.83;99846.25;4388717;32;20090;-92
2022/11/15 10:30:50;;;;;;;40.17;21.75;;;;;;;11.62;59.82;99838.81;4375802;32;20511;-93
2022/11/15 10:33:38;;;;;;;35.58;20.42;;;;;;;11.74;59.83;99839.28;4376080;32;20090;-93
2022/11/15 10:36:11;;;;;;;40.63;20.65;;;;;;;11.80;59.82;99832.09;4373646;32;20106;-92
2022/11/15 10:38:49;;;;;;;38.72;22.58;;;;;;;11.77;59.83;99839.16;4388246;32;20114;-93
2022/11/15 10:41:18;;;;;;;40.25;21.62;;;;;;;11.87;59.83;99835.38;4385965;32;20118;-93
2022/11/15 10:43:44;;;;;;;40.15;21.15;;;;;;;11.74;59.82;99829.69;4349639;32;20098;-93
2022/11/15 10:46:20;;;;;;;38.88;21.12;;;;;;;11.77;59.83;99823.50;4373566;32;20111;-93
2022/11/15 10:48:46;;;;;;;42.80;22.62;;;;;;;11.76;59.83;99821.81;4367823;32;20702;-93
2022/11/15 10:51:20;;;;;;;42.33;21.48;;;;;;;11.72;59.82;99812.41;4354369;32;20095;-93
2022/11/15 10:53:46;;;;;;;43.75;21.67;;;;;;;11.73;59.83;99814.09;4375990;32;20145;-93
2022/11/15 10:56:12;;;;;;;40.88;21.20;;;;;;;11.64;59.82;99815.28;4375554;32;20484;-93
2022/11/15 10:58:41;;;;;;;44.67;22.70;;;;;;;11.73;59.82;99801.91;4375881;32;20456;-94
2022/11/15 11:01:16;;;;;;;44.55;23.30;;;;;;;11.77;59.83;99798.28;4340763;32;20090;-93
2022/11/15 11:03:43;;;;;;;39.45;20.35;;;;;;;11.78;59.83;99786.97;4375622;32;20138;-93
2022/11/15 11:06:16;;;;;;;45.35;21.48;;;;;;;11.60;59.81;99785.03;4360740;32;20103;-93
2022/11/15 11:09:04;;;;;;;41.67;23.33;;;;;;;11.75;59.83;99789.66;4386511;32;20093;-93
2022/11/15 11:11:49;;;;;;;44.10;22.48;;;;;;;11.80;59.82;99785.16;4379601;32;20074;-93
2022/11/15 11:14:31;;;;;;;43.60;22.70;;;;;;;11.72;59.82;99781.13;4375595;32;20169;-93
2022/11/15 11:17:26;;;;;;;36.15;21.27;;;;;;;11.73;59.82;99780.22;4380211;32;20100;-93
2022/11/15 11:20:19;;;;;;;41.58;21.30;;;;;;;11.81;59.82;99788.63;4390277;32;20165;-92
2022/11/15 11:23:21;;;;;;;41.70;21.55;;;;;;;11.83;59.83;99778.97;4375947;32;20120;-92
2022/11/15 11:26:03;;;;;;;44.47;23.85;;;;;;;11.75;59.82;99770.56;4377758;32;20489;-93
2022/11/15 11:28:39;;;;;;;43.58;23.27;;;;;;;11.74;59.82;99764.50;4364043;32;20116;-93
2022/11/15 11:31:13;;;;;;;42.53;22.35;;;;;;;11.74;59.82;99763.66;4377745;32;20174;-92
2022/11/15 11:33:56;;;;;;;46.63;23.10;;;;;;;11.67;59.81;99758.66;4387835;32;20511;-93
2022/11/15 11:36:37;;;;;;;45.38;23.02;;;;;;;11.79;59.83;99761.75;4363458;32;20448;-93
2022/11/15 11:39:38;;;;;;;46.45;22.52;;;;;;;11.72;59.82;99757.66;4363353;32;20191;-93
2022/11/15 11:42:30;;;;;;;43.50;22.85;;;;;;;11.77;59.83;99759.16;4349193;32;20612;-93
2022/11/15 11:45:13;;;;;;;40.05;22.13;;;;;;;11.78;59.83;99760.03;4359904;32;20444;-93
2022/11/15 11:47:40;;;;;;;40.45;21.27;;;;;;;11.55;59.81;99763.47;4390182;32;20133;-93